Stations météo

réclame
Mon MeteoGroup
Diepenbeek, Belgique (6477): Température de l'air & dewpoint: 18.01.2018 10:00:00 - 24.01.2018 10:00:00 (CET)Diepenbeek, Belgique (6477): Vitesse du vent & gusts: 18.01.2018 10:00:00 - 24.01.2018 10:00:00 (CET)Diepenbeek, Belgique (6477): Direction du vent: 18.01.2018 10:00:00 - 24.01.2018 10:00:00 (CET)Diepenbeek, Belgique (6477): reduced air pressure: 18.01.2018 10:00:00 - 24.01.2018 10:00:00 (CET)Diepenbeek, Belgique (6477): Ensoleillement: 18.01.2018 10:00:00 - 24.01.2018 10:00:00 (CET)Diepenbeek, Belgique (6477): Quantités de précipitations: 18.01.2018 10:00:00 - 24.01.2018 10:00:00 (CET)
Date & Time tt [°C] td [°C] ff [km/h] ff [knt] fx [km/h] fx [knt] dd ppp [hPa] sd [min] rr [mm]
24.01.2018 10:00:00 12,0 10,2 19 10 36 20 SSW 1017,2 0 0,0
24.01.2018 09:00:00 11,7 10,0 22 12 35 19 SSW 1017,4 0 0,0
24.01.2018 08:00:00 11,7 9,9 22 12 35 19 SSW 1018,0 0 0,0
24.01.2018 07:00:00 11,5 10,0 22 12 37 20 SSW 1018,2 0 0,0
24.01.2018 06:00:00 11,6 9,9 21 12 38 20 SSW 1018,3 0 0,0
24.01.2018 05:00:00 12,0 9,8 23 13 36 20 SSW 1018,5 0 0,0
24.01.2018 04:00:00 11,8 9,8 24 13 37 20 SSW 1019,0 0 0,0
24.01.2018 03:00:00 11,5 9,7 21 12 33 18 SSW 1019,4 0 0,0
24.01.2018 02:00:00 11,2 9,4 22 12 34 18 SSW 1019,5 0 0,0
24.01.2018 01:00:00 10,9 9,3 25 14 44 24 SW 1019,9 0 0,0
24.01.2018 00:00:00 10,4 9,0 24 13 38 21 SW 1019,9 0 0,0
23.01.2018 23:00:00 10,1 8,8 24 13 40 22 SSW 1019,8 0 0,0
23.01.2018 22:00:00 9,9 8,3 24 13 45 24 SSW 1020,0 0 0,0
23.01.2018 21:00:00 9,6 8,3 24 13 39 21 SSW 1020,2 0 0,0
23.01.2018 20:00:00 9,8 7,5 26 14 42 23 SSW 1020,0 0 0,0
23.01.2018 19:00:00 9,7 6,8 22 12 39 21 SSW 1020,4 0 0,0
23.01.2018 18:00:00 9,7 6,5 22 12 35 19 SSW 1020,4 0 0,0
23.01.2018 17:00:00 10,0 6,2 18 10 33 18 SSW 1020,5 0 0,0
23.01.2018 16:00:00 10,0 5,9 20 11 34 19 S 1020,4 0 0,0
23.01.2018 15:00:00 10,2 5,5 23 13 39 21 SSW 1020,8 15 0,0
23.01.2018 14:00:00 10,3 5,4 24 13 39 21 SSW 1021,4 21 0,0
23.01.2018 13:00:00 9,8 5,9 18 10 34 18 SSW 1022,4 45 0,0
23.01.2018 12:00:00 9,1 5,5 19 11 30 16 SSW 1023,0 4 0,0
23.01.2018 11:00:00 7,8 5,4 17 9 26 14 SSW 1023,1 0 0,0
23.01.2018 10:00:00 7,6 5,0 18 10 26 14 SW 1023,1 0 0,0
23.01.2018 09:00:00 7,2 4,4 14 8 21 11 SSW - 0 0,0
23.01.2018 08:00:00 7,0 4,6 12 7 19 11 SSW - 0 0,0
23.01.2018 07:00:00 6,9 4,7 11 6 19 11 SSW - 0 0,0
23.01.2018 06:00:00 6,8 4,5 13 7 18 10 SW - 0 0,0
23.01.2018 05:00:00 6,7 4,5 10 5 21 12 SW - 0 0,0
23.01.2018 04:00:00 6,3 4,4 8 5 14 8 SW - 0 0,0
23.01.2018 03:00:00 6,5 4,3 8 4 14 7 WSW - 0 0,0
23.01.2018 02:00:00 6,5 4,4 9 5 14 8 WSW - 0 0,0
23.01.2018 01:00:00 6,7 4,5 7 4 15 8 WSW - 0 0,0
23.01.2018 00:00:00 6,6 4,8 10 5 16 9 WSW - 0 0,0
22.01.2018 23:00:00 6,9 4,7 10 5 19 10 WSW - 0 0,0
22.01.2018 22:00:00 6,9 4,7 10 6 18 10 W - 0 0,0
22.01.2018 21:00:00 7,4 4,9 11 6 19 11 W - 0 0,0
22.01.2018 20:00:00 7,7 4,8 9 5 22 12 WNW - 0 0,0
22.01.2018 19:00:00 8,1 4,8 11 6 19 11 WNW - 0 0,0
22.01.2018 18:00:00 8,4 4,8 12 6 22 12 WNW - 0 0,0
22.01.2018 17:00:00 8,6 5,1 9 5 18 10 NW - 0 0,0
22.01.2018 16:00:00 9,0 5,5 10 6 29 15 NW - 10 0,0
22.01.2018 15:00:00 9,5 6,1 13 7 23 13 WNW - 4 0,0
22.01.2018 14:00:00 9,4 6,4 9 5 20 11 WNW - 0 0,0
22.01.2018 13:00:00 9,4 7,2 7 4 17 9 NW - 0 0,0
22.01.2018 12:00:00 9,2 7,8 6 3 15 8 WNW - 0 0,0
22.01.2018 11:00:00 8,9 8,1 8 5 14 7 W - 0 0,0
22.01.2018 10:00:00 8,5 8,2 6 3 12 6 W - 0 0,0
22.01.2018 09:00:00 - - - - - - - - - -
22.01.2018 08:00:00 8,3 8,1 9 5 17 9 WSW - 0 0,0
22.01.2018 07:00:00 8,2 7,9 14 8 21 11 W - 0 0,1
22.01.2018 06:00:00 7,6 7,6 13 7 30 16 W - 0 0,2
22.01.2018 05:00:00 6,1 6,1 9 5 20 11 SW - 0 0,4
22.01.2018 04:00:00 5,4 5,3 14 7 20 11 SSW - 0 0,2
22.01.2018 03:00:00 4,3 4,1 9 5 14 7 S - 0 0,1
22.01.2018 02:00:00 3,6 3,3 10 5 17 9 S - 0 0,1
22.01.2018 01:00:00 2,7 2,4 7 4 13 7 SE - 0 0,2
22.01.2018 00:00:00 2,3 1,8 10 5 17 9 SE - 0 1,0
21.01.2018 23:00:00 1,8 1,1 11 6 24 13 SE - 0 1,1
21.01.2018 22:00:00 3,0 1,0 19 11 35 19 SSE - 0 0,3
21.01.2018 21:00:00 3,8 0,9 16 9 25 13 S - 0 0,0
21.01.2018 20:00:00 3,6 1,2 10 5 18 10 SSE - 0 0,0
21.01.2018 19:00:00 3,5 1,4 11 6 16 9 SSE - 0 0,0
21.01.2018 18:00:00 3,6 1,2 10 5 15 8 SSE - 0 0,0
21.01.2018 17:00:00 4,0 2,0 8 4 11 6 S - 0 0,0
21.01.2018 16:00:00 4,4 2,3 8 5 15 8 S - 0 0,0
21.01.2018 15:00:00 4,7 2,5 10 6 16 9 SW - 5 0,0
21.01.2018 14:00:00 5,1 2,5 13 7 17 9 SW - 60 0,0
21.01.2018 13:00:00 4,5 2,3 14 8 18 10 SW - 60 0,0
21.01.2018 12:00:00 3,1 1,9 11 6 17 9 SW - 50 0,0
21.01.2018 11:00:00 2,1 1,4 7 4 11 6 WSW - 56 0,0
21.01.2018 10:00:00 0,5 0,4 4 2 6 3 S - 51 0,0
21.01.2018 09:00:00 -0,9 -1,0 4 2 7 4 SW - 0 0,0
21.01.2018 08:00:00 -0,4 -0,5 4 2 10 5 SSW - 0 0,0
21.01.2018 07:00:00 0,7 0,7 7 4 13 7 W - 0 0,0
21.01.2018 06:00:00 1,7 1,5 8 5 16 9 W - 0 0,0
21.01.2018 05:00:00 2,4 2,2 9 5 19 10 W - 0 0,0
21.01.2018 04:00:00 2,0 1,7 7 4 19 10 W - 0 0,0
21.01.2018 03:00:00 2,6 2,3 10 6 17 9 W - 0 0,1
21.01.2018 02:00:00 2,5 2,2 8 4 15 8 WNW - 0 0,0
21.01.2018 01:00:00 2,2 1,9 6 4 10 5 WNW - 0 0,0
21.01.2018 00:00:00 2,0 1,6 6 3 19 10 NW - 0 0,0
20.01.2018 23:00:00 1,8 1,4 8 5 18 10 NW - 0 0,0
20.01.2018 22:00:00 1,6 1,4 5 3 8 4 WNW - 0 0,1
20.01.2018 21:00:00 1,6 1,4 5 3 9 5 NNW - 0 0,6
20.01.2018 20:00:00 2,0 1,9 5 3 8 4 NNW - 0 0,4
20.01.2018 19:00:00 2,1 2,0 4 2 7 4 N - 0 0,0
20.01.2018 18:00:00 1,8 1,7 4 2 11 6 NE - 0 0,1
20.01.2018 17:00:00 1,6 1,4 7 4 11 6 E - 0 0,3
20.01.2018 16:00:00 1,3 1,2 5 3 10 5 E - 0 1,2
20.01.2018 15:00:00 1,7 1,3 6 4 15 8 SE - 0 1,4
20.01.2018 14:00:00 2,3 1,6 11 6 17 9 SSE - 0 1,6
20.01.2018 13:00:00 2,9 2,1 11 6 26 14 S - 0 1,2
20.01.2018 12:00:00 3,7 2,5 14 8 24 13 S - 0 0,4
20.01.2018 11:00:00 3,6 2,7 12 7 24 13 S - 0 0,3
20.01.2018 10:00:00 3,5 2,0 12 6 21 12 S - 0 0,0
20.01.2018 09:00:00 2,7 1,3 13 7 21 11 SSW - 0 0,0
20.01.2018 08:00:00 2,2 1,1 12 7 24 13 SSW - 0 0,0
20.01.2018 07:00:00 2,7 1,3 14 8 27 14 SW - 0 0,0
20.01.2018 06:00:00 3,2 1,6 16 9 27 15 SSW - 0 0,0
20.01.2018 05:00:00 2,8 1,5 16 9 24 13 SSW - 0 0,0
20.01.2018 04:00:00 2,2 1,0 16 8 25 14 SW - 0 0,0
20.01.2018 03:00:00 2,8 1,4 18 10 26 14 SW - 0 0,0
20.01.2018 02:00:00 2,6 1,2 16 9 32 17 SW - 0 0,0
20.01.2018 01:00:00 2,4 - 18 10 - - SW - - -
20.01.2018 00:00:00 2,1 0,6 18 10 29 16 SW - 0 0,0
19.01.2018 23:00:00 2,0 0,7 13 7 22 12 SW - 0 0,0
19.01.2018 22:00:00 2,0 0,7 14 7 23 13 SSW - 0 0,0
19.01.2018 21:00:00 2,6 0,7 15 8 23 12 SW - 0 0,0
19.01.2018 20:00:00 3,0 0,9 16 9 22 12 SW - 0 0,0
19.01.2018 19:00:00 3,4 1,1 14 8 21 11 SW - 0 0,0
19.01.2018 18:00:00 3,7 0,7 11 6 19 10 SW - 0 0,0
19.01.2018 17:00:00 4,9 0,9 14 8 29 16 SW - 52 0,0
19.01.2018 16:00:00 5,7 1,5 19 10 34 18 WSW - 22 0,0
19.01.2018 15:00:00 5,4 1,6 12 6 32 17 WSW - 13 0,0
19.01.2018 14:00:00 - - - - - - - - - -
19.01.2018 13:00:00 5,5 2,2 22 12 32 17 WSW - 48 0,0
19.01.2018 12:00:00 5,0 2,2 16 9 31 17 WSW - 56 0,0
19.01.2018 11:00:00 3,9 1,7 17 9 25 13 SW - 50 0,0
19.01.2018 10:00:00 2,8 1,1 13 7 22 12 SW - 23 0,0
19.01.2018 09:00:00 2,4 1,0 16 9 27 15 SW - 0 0,0
19.01.2018 08:00:00 3,2 1,9 15 8 27 15 WSW - 0 0,1
19.01.2018 07:00:00 2,8 2,0 14 8 28 15 WSW - 0 0,0
19.01.2018 06:00:00 2,9 2,1 14 8 35 19 WSW - 0 0,4
19.01.2018 05:00:00 3,5 2,3 18 10 36 19 W - 0 0,4
19.01.2018 04:00:00 3,7 2,5 15 8 29 16 WSW - 0 0,1
19.01.2018 03:00:00 2,8 2,0 16 8 25 14 SW - 0 0,0
19.01.2018 02:00:00 2,8 2,2 10 5 16 9 WSW - 0 0,1
19.01.2018 01:00:00 2,1 1,8 7 4 11 6 SW - 0 0,0
19.01.2018 00:00:00 1,2 1,0 7 4 13 7 SW - 0 0,1
18.01.2018 23:00:00 2,2 1,6 6 3 28 15 WSW - 0 5,2
18.01.2018 22:00:00 4,3 2,9 5 3 21 11 W - 0 0,3
18.01.2018 21:00:00 4,5 2,6 14 8 31 17 W - 0 1,3
18.01.2018 20:00:00 5,6 2,4 13 7 31 17 WNW - 0 0,2
18.01.2018 19:00:00 6,1 1,4 11 6 21 11 W - 0 0,0
18.01.2018 18:00:00 6,1 1,6 10 5 23 12 W - 0 0,0
18.01.2018 17:00:00 7,0 1,0 16 8 37 20 W - 0 0,0
18.01.2018 16:00:00 7,5 1,8 22 12 42 23 W - 31 0,0
18.01.2018 15:00:00 7,3 1,8 21 11 46 25 W - 3 0,0
18.01.2018 14:00:00 7,3 1,0 23 12 62 34 WNW - 14 0,0
18.01.2018 13:00:00 7,4 1,0 32 18 66 36 WNW - 2 0,0
18.01.2018 12:00:00 8,4 0,9 35 19 84 45 W - 4 0,0
18.01.2018 11:00:00 10,0 2,1 45 24 90 49 W - 8 0,2
18.01.2018 10:00:00 11,2 3,3 52 28 99 53 W - 2 0,1

tt = Température de l'air
td = dewpoint
ff = Vitesse du vent
fx = gusts
dd = Direction du vent
ppp = reduced air pressure
sd = Ensoleillement
rr = Quantités de précipitations

stations d'obs. à proximité